createdAt,value
2022-09-20T00:01:40.527Z,78.30
2022-09-20T00:04:08.904Z,77.81
2022-09-20T00:06:37.229Z,77.24
2022-09-20T00:09:06.880Z,77.84
2022-09-20T00:11:36.050Z,78.74
2022-09-20T00:14:08.577Z,78.53
2022-09-20T00:16:39.403Z,79.15
2022-09-20T00:19:08.200Z,78.28
2022-09-20T00:21:38.130Z,79.35
2022-09-20T00:24:08.175Z,78.88
2022-09-20T00:26:36.683Z,78.89
2022-09-20T00:29:06.055Z,78.96
2022-09-20T00:31:35.770Z,79.27
2022-09-20T00:34:21.236Z,78.72
2022-09-20T00:36:49.351Z,79.26
2022-09-20T00:39:18.756Z,78.53
2022-09-20T00:41:46.867Z,79.22
2022-09-20T00:44:57.637Z,79.02
2022-09-20T00:47:30.876Z,78.68
2022-09-20T00:50:03.264Z,79.13
2022-09-20T00:52:31.598Z,79.00
2022-09-20T00:55:01.769Z,78.35
2022-09-20T00:57:35.366Z,78.53
2022-09-20T01:00:07.394Z,78.74
2022-09-20T01:02:38.046Z,78.68
2022-09-20T01:05:07.745Z,78.71
2022-09-20T01:07:35.827Z,78.53
2022-09-20T01:10:06.219Z,78.44
2022-09-20T01:12:35.492Z,77.64
2022-09-20T01:15:05.619Z,78.71
2022-09-20T01:17:36.648Z,79.01
2022-09-20T01:20:14.200Z,79.20
2022-09-20T01:22:51.528Z,79.93
2022-09-20T01:25:29.071Z,80.06
2022-09-20T01:27:58.513Z,80.27
2022-09-20T01:30:30.249Z,79.93
2022-09-20T01:33:07.474Z,80.50
2022-09-20T01:35:37.056Z,80.38
2022-09-20T01:38:14.532Z,79.17
2022-09-20T01:40:47.951Z,79.41
2022-09-20T01:43:24.621Z,78.98
2022-09-20T01:45:54.667Z,78.73
2022-09-20T01:48:28.598Z,77.60
2022-09-20T01:51:14.687Z,78.75
2022-09-20T01:54:10.409Z,78.33
2022-09-20T01:56:59.525Z,78.63
2022-09-20T01:59:41.040Z,77.19
2022-09-20T02:02:11.911Z,77.55
2022-09-20T02:05:00.450Z,78.46
2022-09-20T02:08:02.078Z,78.64
2022-09-20T02:10:42.038Z,79.01
2022-09-20T02:13:12.491Z,78.75
2022-09-20T02:16:06.653Z,79.20
2022-09-20T02:18:49.122Z,79.02
2022-09-20T02:21:25.832Z,78.88
2022-09-20T02:24:04.682Z,78.98
2022-09-20T02:26:41.099Z,79.76
2022-09-20T02:29:22.628Z,79.75
2022-09-20T02:32:03.653Z,79.44
2022-09-20T02:34:50.741Z,80.06
2022-09-20T02:37:46.970Z,80.25
2022-09-20T02:40:26.018Z,80.85
2022-09-20T02:43:00.429Z,80.18
2022-09-20T02:45:33.391Z,80.23
2022-09-20T02:48:05.211Z,80.45
2022-09-20T02:50:38.817Z,80.67
2022-09-20T02:53:24.673Z,80.95
2022-09-20T02:56:02.701Z,80.28
2022-09-20T02:58:39.079Z,79.84
2022-09-20T03:01:14.579Z,80.56
2022-09-20T03:03:51.556Z,80.43
2022-09-20T03:06:25.788Z,80.77
2022-09-20T03:08:59.533Z,80.44
2022-09-20T03:11:30.792Z,81.03
2022-09-20T03:14:08.112Z,81.23
2022-09-20T03:16:43.665Z,82.01
2022-09-20T03:19:21.230Z,81.20
2022-09-20T03:21:54.864Z,81.10
2022-09-20T03:24:30.710Z,81.05
2022-09-20T03:27:05.587Z,81.05
2022-09-20T03:29:44.275Z,80.25
2022-09-20T03:32:24.356Z,80.79
2022-09-20T03:35:03.433Z,80.91
2022-09-20T03:37:44.773Z,82.13
2022-09-20T03:40:30.076Z,81.33
2022-09-20T03:43:04.132Z,81.89
2022-09-20T03:45:49.584Z,81.86
2022-09-20T03:48:56.322Z,81.70
2022-09-20T03:51:33.869Z,82.35
2022-09-20T03:54:39.797Z,82.65
2022-09-20T03:57:17.055Z,81.41
2022-09-20T03:59:59.254Z,83.09
2022-09-20T04:02:40.858Z,82.65
2022-09-20T04:05:11.734Z,83.15
2022-09-20T04:07:52.465Z,81.87
2022-09-20T04:10:34.141Z,81.79
2022-09-20T04:13:15.654Z,82.40
2022-09-20T04:15:48.987Z,82.50
2022-09-20T04:18:28.618Z,82.13
2022-09-20T04:21:00.276Z,82.61
2022-09-20T04:23:37.837Z,82.17
2022-09-20T04:26:07.051Z,83.60
2022-09-20T04:28:41.964Z,83.70
2022-09-20T04:31:23.105Z,84.55
2022-09-20T04:33:52.979Z,84.05
2022-09-20T04:36:36.816Z,84.42
2022-09-20T04:39:16.857Z,85.29
2022-09-20T04:42:31.361Z,84.59
2022-09-20T04:45:33.202Z,83.85
2022-09-20T04:48:35.686Z,84.24
2022-09-20T04:51:29.669Z,83.21
2022-09-20T04:54:28.820Z,83.38
2022-09-20T04:57:19.950Z,83.71
2022-09-20T05:00:02.794Z,83.06
2022-09-20T05:03:10.645Z,82.54
2022-09-20T05:06:05.322Z,81.81
2022-09-20T05:09:14.848Z,82.32
2022-09-20T05:12:16.503Z,80.22
2022-09-20T05:15:09.654Z,80.75
2022-09-20T05:17:46.314Z,80.85
2022-09-20T05:20:34.300Z,80.57
2022-09-20T05:23:26.548Z,80.76
2022-09-20T05:26:07.997Z,80.37
2022-09-20T05:28:46.160Z,79.51
2022-09-20T05:31:19.551Z,80.09
2022-09-20T05:33:52.544Z,80.39
2022-09-20T05:36:32.326Z,80.91
2022-09-20T05:39:09.605Z,81.07
2022-09-20T05:41:42.544Z,80.67
2022-09-20T05:44:26.678Z,80.36
2022-09-20T05:47:00.729Z,81.29
2022-09-20T05:49:41.187Z,80.34
2022-09-20T05:52:20.398Z,80.60
2022-09-20T05:55:01.588Z,80.48
2022-09-20T05:57:40.676Z,81.92
2022-09-20T06:00:13.479Z,82.45
2022-09-20T06:02:48.710Z,83.57
2022-09-20T06:05:18.333Z,83.04
2022-09-20T06:08:12.301Z,83.05
2022-09-20T06:11:07.770Z,84.01
2022-09-20T06:13:46.936Z,84.50
2022-09-20T06:16:23.379Z,84.14
2022-09-20T06:18:56.433Z,84.37
2022-09-20T06:21:31.313Z,84.30
2022-09-20T06:24:02.447Z,85.03
2022-09-20T06:26:36.958Z,84.44
2022-09-20T06:29:07.572Z,84.91
2022-09-20T06:31:38.184Z,85.00
2022-09-20T06:34:11.626Z,84.36
2022-09-20T06:37:07.036Z,84.20
2022-09-20T06:39:59.962Z,84.70
2022-09-20T06:42:29.637Z,84.05
2022-09-20T06:44:57.840Z,84.47
2022-09-20T06:47:27.675Z,83.59
2022-09-20T06:49:59.083Z,84.39
2022-09-20T06:52:27.218Z,83.41
2022-09-20T06:54:56.933Z,82.63
2022-09-20T06:57:34.141Z,83.18
2022-09-20T07:00:02.851Z,83.60
2022-09-20T07:02:32.271Z,83.49
2022-09-20T07:05:00.385Z,83.35
2022-09-20T07:07:28.436Z,82.34
2022-09-20T07:09:56.510Z,81.92
2022-09-20T07:12:24.786Z,81.61
2022-09-20T07:14:52.997Z,80.89
2022-09-20T07:17:22.266Z,80.09
2022-09-20T07:19:51.718Z,80.78
2022-09-20T07:22:20.130Z,81.00
2022-09-20T07:24:50.819Z,81.26
2022-09-20T07:27:18.955Z,81.62
2022-09-20T07:29:47.678Z,81.28
2022-09-20T07:32:17.251Z,81.65
2022-09-20T07:34:45.970Z,80.62
2022-09-20T07:37:17.568Z,79.54
2022-09-20T07:39:46.401Z,80.21
2022-09-20T07:42:14.522Z,80.41
2022-09-20T07:44:43.627Z,81.13
2022-09-20T07:47:14.266Z,81.90
2022-09-20T07:49:42.530Z,81.11
2022-09-20T07:52:15.856Z,82.00
2022-09-20T07:54:44.007Z,80.89
2022-09-20T07:57:12.162Z,81.68
2022-09-20T07:59:40.210Z,82.91
2022-09-20T08:02:08.389Z,82.85
2022-09-20T08:04:36.457Z,82.56
2022-09-20T08:07:04.664Z,81.61
2022-09-20T08:09:34.124Z,82.04
2022-09-20T08:14:05.338Z,81.78
2022-09-20T08:14:50.347Z,82.08
2022-09-20T08:17:19.476Z,82.21
2022-09-20T08:19:48.054Z,82.35
2022-09-20T08:22:16.166Z,81.92
2022-09-20T08:24:47.065Z,81.05
2022-09-20T08:27:15.160Z,81.43
2022-09-20T08:29:43.238Z,82.27
2022-09-20T08:32:11.462Z,81.34
2022-09-20T08:34:39.692Z,81.37
2022-09-20T08:37:07.753Z,80.54
2022-09-20T08:42:33.623Z,79.80
2022-09-20T08:45:04.369Z,79.17
2022-09-20T08:47:35.864Z,78.73
2022-09-20T08:50:11.064Z,77.23
2022-09-20T08:52:42.660Z,76.41
2022-09-20T08:55:17.130Z,76.55
2022-09-20T08:57:50.222Z,78.46
2022-09-20T09:00:20.563Z,78.80
2022-09-20T09:02:49.195Z,79.49
2022-09-20T09:05:32.743Z,79.74
2022-09-20T09:08:05.161Z,79.61
2022-09-20T09:10:45.117Z,79.75
2022-09-20T09:13:25.274Z,79.36
2022-09-20T09:16:00.275Z,79.92
2022-09-20T09:18:34.998Z,78.67
2022-09-20T09:21:05.456Z,77.00
2022-09-20T09:23:42.534Z,77.54
2022-09-20T09:26:17.926Z,75.72
2022-09-20T09:28:49.490Z,76.06
2022-09-20T09:31:25.935Z,75.18
2022-09-20T09:33:59.604Z,76.40
2022-09-20T09:36:28.751Z,76.41
2022-09-20T09:39:16.297Z,75.41
2022-09-20T09:41:44.546Z,75.17
2022-09-20T09:44:27.847Z,73.84
2022-09-20T09:46:57.690Z,74.95
2022-09-20T09:49:27.226Z,72.85
2022-09-20T09:52:05.556Z,71.98
2022-09-20T09:54:37.525Z,70.65
2022-09-20T09:57:16.507Z,69.13
2022-09-20T10:00:03.058Z,67.84
2022-09-20T10:02:51.744Z,67.47
2022-09-20T10:05:23.556Z,64.98
2022-09-20T10:08:00.322Z,64.55
2022-09-20T10:10:35.428Z,63.65
2022-09-20T10:13:10.917Z,64.30
2022-09-20T10:15:49.889Z,63.38
2022-09-20T10:18:35.910Z,62.58
2022-09-20T10:21:19.771Z,61.03
2022-09-20T10:24:04.262Z,61.65
2022-09-20T10:26:52.696Z,61.69
2022-09-20T10:29:31.355Z,62.36
2022-09-20T10:32:06.573Z,64.69
2022-09-20T10:34:48.202Z,66.33
2022-09-20T10:37:21.588Z,65.64
2022-09-20T10:40:00.298Z,65.59
2022-09-20T10:42:52.725Z,63.87
2022-09-20T10:45:55.942Z,62.77
2022-09-20T10:48:23.306Z,62.87
2022-09-20T10:50:57.127Z,61.89
2022-09-20T10:53:30.692Z,61.88
2022-09-20T10:56:08.450Z,63.04
2022-09-20T10:59:23.362Z,62.71
2022-09-20T11:02:04.200Z,62.27
2022-09-20T11:04:59.023Z,61.24
2022-09-20T11:07:35.354Z,61.76
2022-09-20T11:10:13.618Z,60.16
2022-09-20T11:12:44.068Z,60.39
2022-09-20T11:15:17.507Z,59.21
2022-09-20T11:17:50.829Z,56.71
2022-09-20T11:20:23.633Z,56.33
2022-09-20T11:22:54.057Z,55.11
2022-09-20T11:25:29.714Z,55.22
2022-09-20T11:28:02.715Z,56.70
2022-09-20T11:30:34.861Z,60.43
2022-09-20T11:33:08.648Z,63.06
2022-09-20T11:35:44.402Z,66.95
2022-09-20T11:38:15.557Z,69.31
2022-09-20T11:40:49.457Z,70.82
2022-09-20T11:43:20.115Z,72.09
2022-09-20T11:45:55.469Z,74.42
2022-09-20T11:48:27.900Z,76.32
2022-09-20T11:51:24.078Z,78.65
2022-09-20T11:54:17.573Z,79.16
2022-09-20T11:56:51.688Z,80.38
2022-09-20T11:59:29.869Z,78.48
2022-09-20T12:02:01.795Z,79.68
2022-09-20T12:04:33.943Z,80.76
2022-09-20T12:07:10.590Z,81.13
2022-09-20T12:09:43.540Z,80.75
2022-09-20T12:12:29.778Z,80.55
2022-09-20T12:15:01.124Z,80.70
2022-09-20T12:18:09.662Z,82.15
2022-09-20T12:21:16.231Z,83.51
2022-09-20T12:23:48.013Z,82.59
2022-09-20T12:26:42.668Z,81.78
2022-09-20T12:29:52.251Z,81.30
2022-09-20T12:32:58.904Z,81.31
2022-09-20T12:35:59.406Z,80.98
2022-09-20T12:38:34.104Z,79.65
2022-09-20T12:41:11.079Z,78.45
2022-09-20T12:43:48.764Z,79.25
2022-09-20T12:46:23.339Z,78.27
2022-09-20T12:48:51.743Z,79.36
2022-09-20T12:51:44.256Z,74.16
2022-09-20T12:54:14.665Z,75.84
2022-09-20T12:56:46.777Z,77.26
2022-09-20T12:59:24.171Z,79.46
2022-09-20T13:01:53.742Z,80.73
2022-09-20T13:05:03.492Z,81.14
2022-09-20T13:07:44.218Z,80.72
2022-09-20T13:10:38.073Z,80.03
2022-09-20T13:13:31.971Z,79.20
2022-09-20T13:16:05.698Z,78.75
2022-09-20T13:18:36.177Z,78.15
2022-09-20T13:21:07.673Z,78.34
2022-09-20T13:23:46.614Z,78.00
2022-09-20T13:26:16.963Z,78.34
2022-09-20T13:28:52.562Z,78.83
2022-09-20T13:31:25.748Z,79.19
2022-09-20T13:33:57.857Z,80.48
2022-09-20T13:36:29.444Z,79.47
2022-09-20T13:38:59.124Z,79.25
2022-09-20T13:41:30.263Z,78.75
2022-09-20T13:44:02.355Z,78.60
2022-09-20T13:46:32.018Z,78.51
2022-09-20T13:49:15.168Z,77.60
2022-09-20T13:51:43.743Z,77.01
2022-09-20T13:54:30.571Z,76.57
2022-09-20T13:57:01.099Z,77.37
2022-09-20T13:59:37.983Z,77.05
2022-09-20T14:02:06.159Z,76.00
2022-09-20T14:04:35.829Z,74.20
2022-09-20T14:07:08.428Z,72.84
2022-09-20T14:09:40.077Z,70.57
2022-09-20T14:12:08.738Z,71.48
2022-09-20T14:14:40.017Z,71.63
2022-09-20T14:17:09.953Z,70.07
2022-09-20T14:19:41.944Z,71.60
2022-09-20T14:22:16.638Z,70.29
2022-09-20T14:25:00.362Z,70.82
2022-09-20T14:27:31.183Z,71.25
2022-09-20T14:30:03.934Z,71.01
2022-09-20T14:32:41.147Z,71.11
2022-09-20T14:35:16.833Z,70.85
2022-09-20T14:37:46.574Z,71.32
2022-09-20T14:40:25.085Z,72.14
2022-09-20T14:42:56.889Z,72.60
2022-09-20T14:45:31.515Z,72.49
2022-09-20T14:48:09.536Z,73.31
2022-09-20T14:50:41.155Z,73.79
2022-09-20T14:53:26.711Z,73.72
2022-09-20T14:56:00.907Z,73.34
2022-09-20T14:58:30.326Z,73.94
2022-09-20T15:01:05.953Z,74.19
2022-09-20T15:03:39.612Z,73.77
2022-09-20T15:06:11.367Z,73.69
2022-09-20T15:08:45.520Z,73.56
2022-09-20T15:11:15.903Z,73.34
2022-09-20T15:13:44.916Z,74.41
2022-09-20T15:16:16.465Z,74.62
2022-09-20T15:18:46.171Z,74.89
2022-09-20T15:21:15.147Z,74.69
2022-09-20T15:23:44.510Z,74.68
2022-09-20T15:26:15.121Z,74.48
2022-09-20T15:28:43.881Z,73.81
2022-09-20T15:31:15.138Z,73.73
2022-09-20T15:33:45.234Z,73.43
2022-09-20T15:36:13.824Z,73.35
2022-09-20T15:38:43.495Z,73.73
2022-09-20T15:41:11.881Z,73.90
2022-09-20T15:43:43.639Z,73.97
2022-09-20T15:46:20.670Z,73.64
2022-09-20T15:48:52.065Z,74.85
2022-09-20T15:51:21.665Z,74.37
2022-09-20T15:53:56.866Z,72.76
2022-09-20T15:56:28.823Z,73.12
2022-09-20T15:59:00.379Z,72.98
2022-09-20T16:01:31.620Z,74.41
2022-09-20T16:04:07.109Z,74.75
2022-09-20T16:06:36.031Z,75.28
2022-09-20T16:09:04.845Z,76.80
2022-09-20T16:11:33.345Z,78.20
2022-09-20T16:14:02.206Z,80.07
2022-09-20T16:16:37.400Z,80.52
2022-09-20T16:19:21.681Z,80.16
2022-09-20T16:22:02.872Z,81.88
2022-09-20T16:24:33.251Z,83.39
2022-09-20T16:27:03.094Z,83.03
2022-09-20T16:29:32.323Z,83.29
2022-09-20T16:32:03.466Z,81.76
2022-09-20T16:34:35.186Z,80.87
2022-09-20T16:37:05.796Z,80.95
2022-09-20T16:39:34.879Z,79.99
2022-09-20T16:42:05.024Z,78.86
2022-09-20T16:44:34.374Z,78.61
2022-09-20T16:47:03.156Z,79.03
2022-09-20T16:49:33.102Z,78.11
2022-09-20T16:52:01.585Z,79.57
2022-09-20T16:54:32.023Z,80.12
2022-09-20T16:57:00.665Z,79.94
2022-09-20T16:59:29.195Z,79.93
2022-09-20T17:02:00.035Z,80.20
2022-09-20T17:04:28.313Z,80.46
2022-09-20T17:07:02.428Z,80.43
2022-09-20T17:09:31.742Z,80.17
2022-09-20T17:12:09.809Z,80.65
2022-09-20T17:14:39.105Z,81.14
2022-09-20T17:17:07.380Z,81.25
2022-09-20T17:19:35.844Z,81.59
2022-09-20T17:22:08.040Z,80.88
2022-09-20T17:24:41.269Z,80.30
2022-09-20T17:27:11.616Z,80.05
2022-09-20T17:29:40.446Z,80.14
2022-09-20T17:32:09.158Z,79.86
2022-09-20T17:34:37.772Z,80.33
2022-09-20T17:37:07.990Z,78.73
2022-09-20T17:39:36.682Z,78.69
2022-09-20T17:42:05.140Z,78.59
2022-09-20T17:44:36.910Z,79.06
2022-09-20T17:47:06.341Z,77.95
2022-09-20T17:49:34.785Z,78.62
2022-09-20T17:52:04.391Z,77.56
2022-09-20T17:54:34.110Z,77.58
2022-09-20T17:57:02.386Z,78.15
2022-09-20T17:59:30.558Z,76.94
2022-09-20T18:02:00.991Z,76.38
2022-09-20T18:04:29.615Z,77.01
2022-09-20T18:07:01.943Z,76.63
2022-09-20T18:09:30.521Z,76.54
2022-09-20T18:12:02.632Z,76.39
2022-09-20T18:14:32.141Z,76.66
2022-09-20T18:17:02.314Z,75.94
2022-09-20T18:19:34.235Z,77.59
2022-09-20T18:22:03.358Z,76.77
2022-09-20T18:24:31.721Z,77.00
2022-09-20T18:27:01.826Z,77.20
2022-09-20T18:29:33.537Z,77.76
2022-09-20T18:32:01.858Z,78.23
2022-09-20T18:34:33.478Z,78.72
2022-09-20T18:37:03.938Z,78.83
2022-09-20T18:39:33.627Z,79.07
2022-09-20T18:42:04.534Z,79.47
2022-09-20T18:44:33.900Z,79.85
2022-09-20T18:47:03.927Z,80.37
2022-09-20T18:49:33.471Z,81.02
2022-09-20T18:52:01.686Z,80.28
2022-09-20T18:54:33.550Z,81.11
2022-09-20T18:57:04.250Z,81.35
2022-09-20T18:59:33.136Z,81.58
2022-09-20T19:02:13.959Z,80.61
2022-09-20T19:05:01.021Z,81.31
2022-09-20T19:07:37.273Z,81.41
2022-09-20T19:10:14.786Z,81.72
2022-09-20T19:12:48.429Z,82.26
2022-09-20T19:15:29.339Z,81.58
2022-09-20T19:18:08.480Z,81.47
2022-09-20T19:20:43.133Z,81.85
2022-09-20T19:23:25.411Z,81.87
2022-09-20T19:26:01.282Z,82.44
2022-09-20T19:28:31.686Z,82.29
2022-09-20T19:31:00.349Z,82.54
2022-09-20T19:33:29.814Z,82.94
2022-09-20T19:35:59.827Z,82.34
2022-09-20T19:38:35.392Z,81.36
2022-09-20T19:41:11.234Z,81.88
2022-09-20T19:43:57.995Z,81.09
2022-09-20T19:46:47.479Z,82.08
2022-09-20T19:49:17.666Z,82.43
2022-09-20T19:51:47.578Z,82.72
2022-09-20T19:54:16.416Z,82.74
2022-09-20T19:56:53.192Z,82.44
2022-09-20T19:59:25.255Z,82.32
2022-09-20T20:01:54.612Z,83.00
2022-09-20T20:04:24.083Z,82.98
2022-09-20T20:07:01.815Z,82.89
2022-09-20T20:09:36.220Z,83.48
2022-09-20T20:12:08.517Z,83.67
2022-09-20T20:14:46.906Z,83.38
2022-09-20T20:17:26.336Z,82.70
2022-09-20T20:20:07.427Z,81.29
2022-09-20T20:22:52.581Z,81.43
2022-09-20T20:25:26.434Z,81.80
2022-09-20T20:27:54.842Z,81.61
2022-09-20T20:30:24.593Z,82.03
2022-09-20T20:32:58.127Z,82.95
2022-09-20T20:35:26.977Z,83.35
2022-09-20T20:37:55.244Z,82.87
2022-09-20T20:40:23.823Z,81.86
2022-09-20T20:42:57.240Z,81.37
2022-09-20T20:45:27.372Z,81.57
2022-09-20T20:47:58.202Z,80.40
2022-09-20T20:50:27.180Z,79.89
2022-09-20T20:52:56.454Z,80.37
2022-09-20T20:55:27.527Z,81.20
2022-09-20T20:57:58.478Z,80.19
2022-09-20T21:00:28.906Z,80.12
2022-09-20T21:02:59.359Z,80.03
2022-09-20T21:05:28.294Z,79.75
2022-09-20T21:07:58.013Z,80.31
2022-09-20T21:10:26.611Z,80.27
2022-09-20T21:12:56.306Z,80.67
2022-09-20T21:15:24.752Z,81.08
2022-09-20T21:17:55.288Z,81.20
2022-09-20T21:20:23.693Z,80.00
2022-09-20T21:22:52.100Z,80.87
2022-09-20T21:25:20.376Z,80.18
2022-09-20T21:27:49.615Z,80.18
2022-09-20T21:30:18.222Z,80.16
2022-09-20T21:32:46.364Z,79.90
2022-09-20T21:35:18.050Z,80.51
2022-09-20T21:37:46.163Z,80.89
2022-09-20T21:40:14.677Z,81.21
2022-09-20T21:42:43.574Z,80.94
2022-09-20T21:45:12.068Z,81.33
2022-09-20T21:47:40.381Z,81.43
2022-09-20T21:50:10.582Z,80.57
2022-09-20T21:52:43.037Z,81.51
2022-09-20T21:55:11.550Z,80.39
2022-09-20T21:57:39.788Z,80.85
2022-09-20T22:00:10.865Z,81.47
2022-09-20T22:02:40.614Z,80.50
2022-09-20T22:05:09.352Z,80.89
2022-09-20T22:07:37.575Z,80.48
2022-09-20T22:10:08.153Z,81.09
2022-09-20T22:12:36.382Z,80.54
2022-09-20T22:15:04.727Z,81.43
2022-09-20T22:17:32.948Z,80.73
2022-09-20T22:20:01.280Z,80.75
2022-09-20T22:22:29.513Z,80.15
2022-09-20T22:24:57.702Z,80.37
2022-09-20T22:27:27.338Z,80.15
2022-09-20T22:30:00.414Z,79.58
2022-09-20T22:32:32.597Z,79.27
2022-09-20T22:35:00.885Z,79.82
2022-09-20T22:37:31.705Z,79.00
2022-09-20T22:40:00.282Z,78.26
2022-09-20T22:42:30.124Z,77.96
2022-09-20T22:44:59.608Z,78.30
2022-09-20T22:47:27.992Z,78.25
2022-09-20T22:49:56.206Z,78.02
2022-09-20T22:52:24.452Z,78.43
2022-09-20T22:54:52.608Z,78.71
2022-09-20T22:57:20.782Z,77.51
2022-09-20T22:59:50.285Z,79.09
2022-09-20T23:02:18.444Z,78.91
2022-09-20T23:04:46.593Z,77.67
2022-09-20T23:07:14.784Z,79.84
2022-09-20T23:09:42.973Z,79.14
2022-09-20T23:12:11.422Z,79.98
2022-09-20T23:14:39.540Z,78.73
2022-09-20T23:17:09.019Z,79.03
2022-09-20T23:19:37.292Z,79.56
2022-09-20T23:22:05.617Z,79.95
2022-09-20T23:24:33.941Z,81.19
2022-09-20T23:27:02.253Z,80.56
2022-09-20T23:29:32.119Z,80.56
2022-09-20T23:32:00.353Z,80.86
2022-09-20T23:34:29.867Z,81.08
2022-09-20T23:36:58.051Z,80.41
2022-09-20T23:39:26.996Z,80.25
2022-09-20T23:41:56.633Z,80.63
2022-09-20T23:44:25.006Z,80.91
2022-09-20T23:46:53.228Z,79.92
2022-09-20T23:49:21.637Z,80.25
2022-09-20T23:51:51.254Z,79.40
2022-09-20T23:54:19.608Z,78.05
2022-09-20T23:56:47.786Z,78.91
2022-09-20T23:59:16.126Z,78.45
